Torrington, Connecticut
Current Conditions -  °F | °C
As of 9:45 AM on Friday 24 Oct 2014 (Local Time) from KOXC Reporting Station
Overcast Overcast  
Wind Chill: 42°   Ceiling: 900
Heat Index: 46°   Visibility: 10mi
Dew Point: 41°   Wind: 9mph
Humidity: 81%   Direction: 330°NNW
Pressure: 29.78"   Gusts: 17mph
Location:  41.8°N, 73.09°W
Report Text: KOXC 241345Z 33008G15KT 10SM OVC009 08/05 A2978
Loading
Personal Weather Stations






























Interactive Weather Map
Tropical Storm Tracking
New forecast layout! Learn more

10-Day Weather Forecast

Advertisements
Track Severe Weather on mobile